sensor_id;sensor_type;location;lat;lon;timestamp;P1;durP1;ratioP1;P2;durP2;ratioP2
39066;SDS011;24821;51.988;6.020;2022-08-25T00:00:13;15.43;;;14.63;;
39066;SDS011;24821;51.988;6.020;2022-08-25T00:02:39;15.30;;;14.60;;
39066;SDS011;24821;51.988;6.020;2022-08-25T00:05:05;15.07;;;14.27;;
39066;SDS011;24821;51.988;6.020;2022-08-25T00:07:31;14.05;;;13.45;;
39066;SDS011;24821;51.988;6.020;2022-08-25T00:09:56;14.45;;;13.75;;
39066;SDS011;24821;51.988;6.020;2022-08-25T00:12:22;13.77;;;13.02;;
39066;SDS011;24821;51.988;6.020;2022-08-25T00:14:47;16.13;;;15.23;;
39066;SDS011;24821;51.988;6.020;2022-08-25T00:17:13;13.10;;;12.45;;
39066;SDS011;24821;51.988;6.020;2022-08-25T00:19:38;10.73;;;10.10;;
39066;SDS011;24821;51.988;6.020;2022-08-25T00:22:05;10.63;;;9.88;;
39066;SDS011;24821;51.988;6.020;2022-08-25T00:24:31;9.90;;;9.30;;
39066;SDS011;24821;51.988;6.020;2022-08-25T00:26:57;10.98;;;10.38;;
39066;SDS011;24821;51.988;6.020;2022-08-25T00:29:25;11.35;;;10.65;;
39066;SDS011;24821;51.988;6.020;2022-08-25T00:31:52;10.25;;;9.68;;
39066;SDS011;24821;51.988;6.020;2022-08-25T00:34:26;16.88;;;16.05;;
39066;SDS011;24821;51.988;6.020;2022-08-25T00:36:54;13.32;;;12.52;;
39066;SDS011;24821;51.988;6.020;2022-08-25T00:39:20;13.15;;;12.50;;
39066;SDS011;24821;51.988;6.020;2022-08-25T00:41:48;17.92;;;17.13;;
39066;SDS011;24821;51.988;6.020;2022-08-25T00:44:16;16.00;;;15.20;;
39066;SDS011;24821;51.988;6.020;2022-08-25T00:46:44;16.92;;;16.02;;
39066;SDS011;24821;51.988;6.020;2022-08-25T00:49:16;19.40;;;18.33;;
39066;SDS011;24821;51.988;6.020;2022-08-25T00:51:58;16.00;;;15.20;;
39066;SDS011;24821;51.988;6.020;2022-08-25T00:54:37;16.20;;;15.45;;
39066;SDS011;24821;51.988;6.020;2022-08-25T00:57:06;16.55;;;15.63;;
39066;SDS011;24821;51.988;6.020;2022-08-25T00:59:35;18.25;;;17.42;;
39066;SDS011;24821;51.988;6.020;2022-08-25T01:02:01;16.05;;;15.35;;
39066;SDS011;24821;51.988;6.020;2022-08-25T01:04:28;13.82;;;13.13;;
39066;SDS011;24821;51.988;6.020;2022-08-25T01:06:54;17.85;;;17.02;;
39066;SDS011;24821;51.988;6.020;2022-08-25T01:09:22;19.50;;;18.63;;
39066;SDS011;24821;51.988;6.020;2022-08-25T01:11:47;20.98;;;19.98;;
39066;SDS011;24821;51.988;6.020;2022-08-25T01:14:14;19.50;;;18.60;;
39066;SDS011;24821;51.988;6.020;2022-08-25T01:16:41;17.85;;;16.95;;
39066;SDS011;24821;51.988;6.020;2022-08-25T01:19:08;17.60;;;16.58;;
39066;SDS011;24821;51.988;6.020;2022-08-25T01:21:39;18.40;;;17.52;;
39066;SDS011;24821;51.988;6.020;2022-08-25T01:24:10;19.55;;;18.50;;
39066;SDS011;24821;51.988;6.020;2022-08-25T01:26:58;11.38;;;10.68;;
39066;SDS011;24821;51.988;6.020;2022-08-25T01:29:25;12.90;;;12.30;;
39066;SDS011;24821;51.988;6.020;2022-08-25T01:31:54;19.35;;;18.50;;
39066;SDS011;24821;51.988;6.020;2022-08-25T01:34:23;15.20;;;14.45;;
39066;SDS011;24821;51.988;6.020;2022-08-25T01:36:54;14.75;;;13.88;;
39066;SDS011;24821;51.988;6.020;2022-08-25T01:39:20;13.60;;;12.73;;
39066;SDS011;24821;51.988;6.020;2022-08-25T01:44:12;12.93;;;12.32;;
39066;SDS011;24821;51.988;6.020;2022-08-25T01:46:38;12.73;;;11.93;;
39066;SDS011;24821;51.988;6.020;2022-08-25T01:49:04;13.07;;;12.45;;
39066;SDS011;24821;51.988;6.020;2022-08-25T01:51:33;14.77;;;14.00;;
39066;SDS011;24821;51.988;6.020;2022-08-25T01:54:02;16.13;;;15.32;;
39066;SDS011;24821;51.988;6.020;2022-08-25T01:56:28;15.40;;;14.60;;
39066;SDS011;24821;51.988;6.020;2022-08-25T01:58:53;12.75;;;12.15;;
39066;SDS011;24821;51.988;6.020;2022-08-25T02:01:22;11.07;;;10.48;;
39066;SDS011;24821;51.988;6.020;2022-08-25T02:03:50;13.70;;;13.00;;
39066;SDS011;24821;51.988;6.020;2022-08-25T02:06:21;12.65;;;12.05;;
39066;SDS011;24821;51.988;6.020;2022-08-25T02:08:53;12.32;;;11.63;;
39066;SDS011;24821;51.988;6.020;2022-08-25T02:11:22;15.77;;;14.88;;
39066;SDS011;24821;51.988;6.020;2022-08-25T02:13:49;19.20;;;18.23;;
39066;SDS011;24821;51.988;6.020;2022-08-25T02:16:18;17.45;;;16.40;;
39066;SDS011;24821;51.988;6.020;2022-08-25T02:18:49;18.92;;;17.98;;
39066;SDS011;24821;51.988;6.020;2022-08-25T02:21:15;20.05;;;19.05;;
39066;SDS011;24821;51.988;6.020;2022-08-25T02:23:41;17.88;;;16.98;;
39066;SDS011;24821;51.988;6.020;2022-08-25T02:26:07;18.13;;;17.30;;
39066;SDS011;24821;51.988;6.020;2022-08-25T02:28:33;18.02;;;17.02;;
39066;SDS011;24821;51.988;6.020;2022-08-25T02:31:00;17.58;;;16.67;;
39066;SDS011;24821;51.988;6.020;2022-08-25T02:33:25;18.58;;;17.67;;
39066;SDS011;24821;51.988;6.020;2022-08-25T02:35:51;14.32;;;13.55;;
39066;SDS011;24821;51.988;6.020;2022-08-25T02:38:16;14.55;;;13.82;;
39066;SDS011;24821;51.988;6.020;2022-08-25T02:40:42;12.55;;;11.75;;
39066;SDS011;24821;51.988;6.020;2022-08-25T02:43:08;12.15;;;11.45;;
39066;SDS011;24821;51.988;6.020;2022-08-25T02:45:34;13.27;;;12.43;;
39066;SDS011;24821;51.988;6.020;2022-08-25T02:48:00;20.05;;;19.05;;
39066;SDS011;24821;51.988;6.020;2022-08-25T02:50:27;17.42;;;16.52;;
39066;SDS011;24821;51.988;6.020;2022-08-25T02:52:52;23.13;;;21.83;;
39066;SDS011;24821;51.988;6.020;2022-08-25T02:55:19;23.60;;;22.60;;
39066;SDS011;24821;51.988;6.020;2022-08-25T02:57:45;16.10;;;15.20;;
39066;SDS011;24821;51.988;6.020;2022-08-25T03:00:12;16.27;;;15.38;;
39066;SDS011;24821;51.988;6.020;2022-08-25T03:02:39;28.92;;;27.42;;
39066;SDS011;24821;51.988;6.020;2022-08-25T03:05:06;28.55;;;27.17;;
39066;SDS011;24821;51.988;6.020;2022-08-25T03:07:33;24.48;;;23.38;;
39066;SDS011;24821;51.988;6.020;2022-08-25T03:10:03;29.70;;;28.35;;
39066;SDS011;24821;51.988;6.020;2022-08-25T03:12:32;31.23;;;29.73;;
39066;SDS011;24821;51.988;6.020;2022-08-25T03:14:59;27.83;;;26.52;;
39066;SDS011;24821;51.988;6.020;2022-08-25T03:17:24;30.13;;;28.63;;
39066;SDS011;24821;51.988;6.020;2022-08-25T03:19:50;34.28;;;32.67;;
39066;SDS011;24821;51.988;6.020;2022-08-25T03:22:16;28.48;;;27.05;;
39066;SDS011;24821;51.988;6.020;2022-08-25T03:24:41;31.83;;;30.23;;
39066;SDS011;24821;51.988;6.020;2022-08-25T03:27:07;30.85;;;29.38;;
39066;SDS011;24821;51.988;6.020;2022-08-25T03:29:32;33.72;;;32.17;;
39066;SDS011;24821;51.988;6.020;2022-08-25T03:31:58;27.65;;;26.38;;
39066;SDS011;24821;51.988;6.020;2022-08-25T03:34:25;30.90;;;29.30;;
39066;SDS011;24821;51.988;6.020;2022-08-25T03:36:53;24.85;;;23.60;;
39066;SDS011;24821;51.988;6.020;2022-08-25T03:39:21;23.17;;;21.88;;
39066;SDS011;24821;51.988;6.020;2022-08-25T03:41:47;16.83;;;15.82;;
39066;SDS011;24821;51.988;6.020;2022-08-25T03:44:14;14.25;;;13.48;;
39066;SDS011;24821;51.988;6.020;2022-08-25T03:46:44;13.32;;;12.60;;
39066;SDS011;24821;51.988;6.020;2022-08-25T03:49:12;12.52;;;11.63;;
39066;SDS011;24821;51.988;6.020;2022-08-25T03:51:42;12.35;;;11.63;;
39066;SDS011;24821;51.988;6.020;2022-08-25T03:54:16;13.38;;;12.48;;
39066;SDS011;24821;51.988;6.020;2022-08-25T03:56:45;14.40;;;13.60;;
39066;SDS011;24821;51.988;6.020;2022-08-25T03:59:11;14.32;;;13.43;;
39066;SDS011;24821;51.988;6.020;2022-08-25T04:01:37;16.90;;;15.93;;
39066;SDS011;24821;51.988;6.020;2022-08-25T04:04:04;17.38;;;16.58;;
39066;SDS011;24821;51.988;6.020;2022-08-25T04:06:32;15.18;;;14.43;;
39066;SDS011;24821;51.988;6.020;2022-08-25T04:08:58;15.20;;;14.30;;
39066;SDS011;24821;51.988;6.020;2022-08-25T04:11:24;19.95;;;18.85;;
39066;SDS011;24821;51.988;6.020;2022-08-25T04:13:52;18.08;;;17.08;;
39066;SDS011;24821;51.988;6.020;2022-08-25T04:16:24;15.80;;;14.80;;
39066;SDS011;24821;51.988;6.020;2022-08-25T04:18:51;16.17;;;15.27;;
39066;SDS011;24821;51.988;6.020;2022-08-25T04:21:18;15.23;;;14.32;;
39066;SDS011;24821;51.988;6.020;2022-08-25T04:23:45;14.05;;;12.93;;
39066;SDS011;24821;51.988;6.020;2022-08-25T04:26:16;13.70;;;13.05;;
39066;SDS011;24821;51.988;6.020;2022-08-25T04:28:47;12.68;;;12.05;;
39066;SDS011;24821;51.988;6.020;2022-08-25T04:31:13;13.68;;;12.82;;
39066;SDS011;24821;51.988;6.020;2022-08-25T04:33:43;14.23;;;13.50;;
39066;SDS011;24821;51.988;6.020;2022-08-25T04:36:10;13.38;;;12.68;;
39066;SDS011;24821;51.988;6.020;2022-08-25T04:38:36;14.68;;;13.88;;
39066;SDS011;24821;51.988;6.020;2022-08-25T04:41:03;13.90;;;13.02;;
39066;SDS011;24821;51.988;6.020;2022-08-25T04:43:30;13.43;;;12.65;;
39066;SDS011;24821;51.988;6.020;2022-08-25T04:45:56;13.55;;;12.68;;
39066;SDS011;24821;51.988;6.020;2022-08-25T04:48:22;13.45;;;12.77;;
39066;SDS011;24821;51.988;6.020;2022-08-25T04:50:48;14.13;;;13.43;;
39066;SDS011;24821;51.988;6.020;2022-08-25T04:53:14;12.32;;;11.70;;
39066;SDS011;24821;51.988;6.020;2022-08-25T04:55:47;12.38;;;11.68;;
39066;SDS011;24821;51.988;6.020;2022-08-25T04:58:13;12.75;;;12.05;;
39066;SDS011;24821;51.988;6.020;2022-08-25T05:00:40;11.20;;;10.40;;
39066;SDS011;24821;51.988;6.020;2022-08-25T05:03:07;11.57;;;10.88;;
39066;SDS011;24821;51.988;6.020;2022-08-25T05:05:34;12.20;;;11.52;;
39066;SDS011;24821;51.988;6.020;2022-08-25T05:08:02;12.02;;;11.07;;
39066;SDS011;24821;51.988;6.020;2022-08-25T05:10:28;13.50;;;12.80;;
39066;SDS011;24821;51.988;6.020;2022-08-25T05:12:54;14.27;;;13.48;;
39066;SDS011;24821;51.988;6.020;2022-08-25T05:15:19;13.02;;;12.30;;
39066;SDS011;24821;51.988;6.020;2022-08-25T05:18:03;13.15;;;12.38;;
39066;SDS011;24821;51.988;6.020;2022-08-25T05:20:29;10.73;;;10.13;;
39066;SDS011;24821;51.988;6.020;2022-08-25T05:22:55;14.30;;;13.30;;
39066;SDS011;24821;51.988;6.020;2022-08-25T05:25:21;14.57;;;13.77;;
39066;SDS011;24821;51.988;6.020;2022-08-25T05:27:47;14.35;;;13.65;;
39066;SDS011;24821;51.988;6.020;2022-08-25T05:30:12;16.45;;;15.57;;
39066;SDS011;24821;51.988;6.020;2022-08-25T05:32:38;16.83;;;15.82;;
39066;SDS011;24821;51.988;6.020;2022-08-25T05:35:04;17.60;;;16.48;;
39066;SDS011;24821;51.988;6.020;2022-08-25T05:37:30;20.23;;;18.75;;
39066;SDS011;24821;51.988;6.020;2022-08-25T05:39:56;20.88;;;19.85;;
39066;SDS011;24821;51.988;6.020;2022-08-25T05:42:22;23.20;;;22.02;;
39066;SDS011;24821;51.988;6.020;2022-08-25T05:44:49;24.70;;;22.98;;
39066;SDS011;24821;51.988;6.020;2022-08-25T05:47:14;25.30;;;24.15;;
39066;SDS011;24821;51.988;6.020;2022-08-25T05:49:40;26.95;;;25.58;;
39066;SDS011;24821;51.988;6.020;2022-08-25T05:52:06;24.83;;;23.67;;
39066;SDS011;24821;51.988;6.020;2022-08-25T05:54:32;23.80;;;22.70;;
39066;SDS011;24821;51.988;6.020;2022-08-25T05:56:57;26.65;;;25.35;;
39066;SDS011;24821;51.988;6.020;2022-08-25T05:59:23;24.25;;;22.95;;
39066;SDS011;24821;51.988;6.020;2022-08-25T06:01:49;26.58;;;25.20;;
39066;SDS011;24821;51.988;6.020;2022-08-25T06:06:58;27.30;;;25.88;;
39066;SDS011;24821;51.988;6.020;2022-08-25T06:09:24;26.73;;;25.42;;
39066;SDS011;24821;51.988;6.020;2022-08-25T06:11:50;29.42;;;28.13;;
39066;SDS011;24821;51.988;6.020;2022-08-25T06:14:16;30.45;;;28.95;;
39066;SDS011;24821;51.988;6.020;2022-08-25T06:16:42;31.33;;;29.80;;
39066;SDS011;24821;51.988;6.020;2022-08-25T06:19:08;28.77;;;27.50;;
39066;SDS011;24821;51.988;6.020;2022-08-25T06:21:34;28.00;;;26.60;;
39066;SDS011;24821;51.988;6.020;2022-08-25T06:24:03;30.30;;;28.90;;
39066;SDS011;24821;51.988;6.020;2022-08-25T06:26:29;29.13;;;27.73;;
39066;SDS011;24821;51.988;6.020;2022-08-25T06:28:54;29.13;;;27.83;;
39066;SDS011;24821;51.988;6.020;2022-08-25T06:31:20;28.23;;;26.98;;
39066;SDS011;24821;51.988;6.020;2022-08-25T06:33:46;28.60;;;27.33;;
39066;SDS011;24821;51.988;6.020;2022-08-25T06:36:12;26.95;;;25.65;;
39066;SDS011;24821;51.988;6.020;2022-08-25T06:38:37;24.00;;;22.90;;
39066;SDS011;24821;51.988;6.020;2022-08-25T06:41:04;20.08;;;19.00;;
39066;SDS011;24821;51.988;6.020;2022-08-25T06:43:31;21.63;;;20.63;;
39066;SDS011;24821;51.988;6.020;2022-08-25T06:45:57;14.85;;;14.00;;
39066;SDS011;24821;51.988;6.020;2022-08-25T06:48:31;13.68;;;12.65;;
39066;SDS011;24821;51.988;6.020;2022-08-25T06:50:58;14.38;;;13.57;;
39066;SDS011;24821;51.988;6.020;2022-08-25T06:53:23;14.85;;;14.05;;
39066;SDS011;24821;51.988;6.020;2022-08-25T06:55:56;14.32;;;13.55;;
39066;SDS011;24821;51.988;6.020;2022-08-25T06:58:22;13.93;;;13.32;;
39066;SDS011;24821;51.988;6.020;2022-08-25T07:00:47;14.30;;;13.38;;
39066;SDS011;24821;51.988;6.020;2022-08-25T07:03:13;9.55;;;8.95;;
39066;SDS011;24821;51.988;6.020;2022-08-25T07:05:39;10.38;;;9.73;;
39066;SDS011;24821;51.988;6.020;2022-08-25T07:08:04;11.68;;;10.88;;
39066;SDS011;24821;51.988;6.020;2022-08-25T07:10:30;12.50;;;11.73;;
39066;SDS011;24821;51.988;6.020;2022-08-25T07:12:56;11.18;;;10.38;;
39066;SDS011;24821;51.988;6.020;2022-08-25T07:15:21;13.63;;;12.73;;
39066;SDS011;24821;51.988;6.020;2022-08-25T07:17:47;10.88;;;10.38;;
39066;SDS011;24821;51.988;6.020;2022-08-25T07:20:13;11.52;;;10.75;;
39066;SDS011;24821;51.988;6.020;2022-08-25T07:22:40;10.57;;;9.90;;
39066;SDS011;24821;51.988;6.020;2022-08-25T07:25:06;14.20;;;13.32;;
39066;SDS011;24821;51.988;6.020;2022-08-25T07:27:32;13.02;;;12.23;;
39066;SDS011;24821;51.988;6.020;2022-08-25T07:29:58;12.02;;;11.43;;
39066;SDS011;24821;51.988;6.020;2022-08-25T07:32:23;12.93;;;11.98;;
39066;SDS011;24821;51.988;6.020;2022-08-25T07:34:49;10.68;;;9.82;;
39066;SDS011;24821;51.988;6.020;2022-08-25T07:37:47;10.48;;;9.88;;
39066;SDS011;24821;51.988;6.020;2022-08-25T07:40:16;9.63;;;9.13;;
39066;SDS011;24821;51.988;6.020;2022-08-25T07:42:45;12.05;;;11.35;;
39066;SDS011;24821;51.988;6.020;2022-08-25T07:45:12;5.63;;;5.18;;
39066;SDS011;24821;51.988;6.020;2022-08-25T07:47:38;6.10;;;5.15;;
39066;SDS011;24821;51.988;6.020;2022-08-25T07:50:08;7.63;;;7.00;;
39066;SDS011;24821;51.988;6.020;2022-08-25T07:52:36;7.15;;;6.65;;
39066;SDS011;24821;51.988;6.020;2022-08-25T07:55:02;6.35;;;5.75;;
39066;SDS011;24821;51.988;6.020;2022-08-25T07:57:28;6.18;;;5.65;;
39066;SDS011;24821;51.988;6.020;2022-08-25T07:59:54;7.57;;;7.05;;
39066;SDS011;24821;51.988;6.020;2022-08-25T08:02:20;6.90;;;6.50;;
39066;SDS011;24821;51.988;6.020;2022-08-25T08:04:47;8.95;;;8.15;;
39066;SDS011;24821;51.988;6.020;2022-08-25T08:07:15;8.07;;;7.32;;
39066;SDS011;24821;51.988;6.020;2022-08-25T08:09:45;10.02;;;9.43;;
39066;SDS011;24821;51.988;6.020;2022-08-25T08:12:11;18.77;;;17.77;;
39066;SDS011;24821;51.988;6.020;2022-08-25T08:14:37;9.93;;;9.13;;
39066;SDS011;24821;51.988;6.020;2022-08-25T08:17:06;10.57;;;9.98;;
39066;SDS011;24821;51.988;6.020;2022-08-25T08:19:33;13.85;;;13.05;;
39066;SDS011;24821;51.988;6.020;2022-08-25T08:22:00;13.93;;;13.07;;
39066;SDS011;24821;51.988;6.020;2022-08-25T08:24:30;21.20;;;20.00;;
39066;SDS011;24821;51.988;6.020;2022-08-25T08:27:02;18.50;;;17.60;;
39066;SDS011;24821;51.988;6.020;2022-08-25T08:29:32;15.18;;;14.27;;
39066;SDS011;24821;51.988;6.020;2022-08-25T08:32:03;14.73;;;13.85;;
39066;SDS011;24821;51.988;6.020;2022-08-25T08:34:30;16.75;;;15.88;;
39066;SDS011;24821;51.988;6.020;2022-08-25T08:36:56;15.65;;;14.85;;
39066;SDS011;24821;51.988;6.020;2022-08-25T08:39:22;11.10;;;10.32;;
39066;SDS011;24821;51.988;6.020;2022-08-25T08:41:51;7.88;;;7.50;;
39066;SDS011;24821;51.988;6.020;2022-08-25T08:52:48;5.75;;;5.35;;
39066;SDS011;24821;51.988;6.020;2022-08-25T08:57:57;4.97;;;4.68;;
39066;SDS011;24821;51.988;6.020;2022-08-25T09:00:26;4.38;;;4.15;;
39066;SDS011;24821;51.988;6.020;2022-08-25T09:03:02;3.60;;;3.30;;
39066;SDS011;24821;51.988;6.020;2022-08-25T09:05:31;3.05;;;2.85;;
39066;SDS011;24821;51.988;6.020;2022-08-25T09:08:11;3.63;;;3.00;;
39066;SDS011;24821;51.988;6.020;2022-08-25T09:10:43;3.90;;;3.60;;
39066;SDS011;24821;51.988;6.020;2022-08-25T09:21:48;4.40;;;4.00;;
39066;SDS011;24821;51.988;6.020;2022-08-25T09:24:37;4.30;;;3.88;;
39066;SDS011;24821;51.988;6.020;2022-08-25T09:30:06;3.95;;;3.67;;
39066;SDS011;24821;51.988;6.020;2022-08-25T09:32:49;7.35;;;6.85;;
39066;SDS011;24821;51.988;6.020;2022-08-25T09:35:24;5.05;;;4.75;;
39066;SDS011;24821;51.988;6.020;2022-08-25T09:37:58;4.25;;;3.97;;
39066;SDS011;24821;51.988;6.020;2022-08-25T09:40:25;5.00;;;4.70;;
39066;SDS011;24821;51.988;6.020;2022-08-25T09:42:53;4.75;;;4.45;;
39066;SDS011;24821;51.988;6.020;2022-08-25T09:51:09;3.53;;;3.28;;
39066;SDS011;24821;51.988;6.020;2022-08-25T09:53:46;3.75;;;3.45;;
39066;SDS011;24821;51.988;6.020;2022-08-25T09:56:21;3.65;;;2.75;;
39066;SDS011;24821;51.988;6.020;2022-08-25T09:58:48;5.35;;;4.38;;
39066;SDS011;24821;51.988;6.020;2022-08-25T10:03:52;3.40;;;3.20;;
39066;SDS011;24821;51.988;6.020;2022-08-25T10:06:32;3.05;;;2.85;;
39066;SDS011;24821;51.988;6.020;2022-08-25T10:09:06;3.20;;;2.65;;
39066;SDS011;24821;51.988;6.020;2022-08-25T10:11:42;3.80;;;3.30;;
39066;SDS011;24821;51.988;6.020;2022-08-25T10:17:10;3.67;;;3.28;;
39066;SDS011;24821;51.988;6.020;2022-08-25T10:19:35;3.67;;;2.90;;
39066;SDS011;24821;51.988;6.020;2022-08-25T10:24:32;3.58;;;2.75;;
39066;SDS011;24821;51.988;6.020;2022-08-25T10:27:21;4.38;;;3.95;;
39066;SDS011;24821;51.988;6.020;2022-08-25T10:30:14;2.83;;;2.63;;
39066;SDS011;24821;51.988;6.020;2022-08-25T10:32:59;3.00;;;2.80;;
39066;SDS011;24821;51.988;6.020;2022-08-25T10:35:40;4.15;;;3.13;;
39066;SDS011;24821;51.988;6.020;2022-08-25T10:40:51;3.95;;;3.30;;
39066;SDS011;24821;51.988;6.020;2022-08-25T10:43:29;4.30;;;3.47;;
39066;SDS011;24821;51.988;6.020;2022-08-25T10:46:16;3.53;;;3.22;;
39066;SDS011;24821;51.988;6.020;2022-08-25T10:49:03;3.95;;;3.55;;
39066;SDS011;24821;51.988;6.020;2022-08-25T10:51:44;4.53;;;3.67;;
39066;SDS011;24821;51.988;6.020;2022-08-25T10:56:50;3.92;;;3.58;;
39066;SDS011;24821;51.988;6.020;2022-08-25T11:02:19;3.33;;;3.13;;
39066;SDS011;24821;51.988;6.020;2022-08-25T11:05:11;3.63;;;3.42;;
39066;SDS011;24821;51.988;6.020;2022-08-25T11:07:47;3.78;;;3.58;;
39066;SDS011;24821;51.988;6.020;2022-08-25T11:10:16;3.15;;;2.80;;
39066;SDS011;24821;51.988;6.020;2022-08-25T11:15:21;3.20;;;2.90;;
39066;SDS011;24821;51.988;6.020;2022-08-25T11:20:27;2.95;;;2.70;;
39066;SDS011;24821;51.988;6.020;2022-08-25T11:23:16;3.13;;;2.83;;
39066;SDS011;24821;51.988;6.020;2022-08-25T11:26:09;2.53;;;2.30;;
39066;SDS011;24821;51.988;6.020;2022-08-25T11:28:53;3.55;;;3.35;;
39066;SDS011;24821;51.988;6.020;2022-08-25T11:31:27;3.15;;;2.88;;
39066;SDS011;24821;51.988;6.020;2022-08-25T11:33:57;3.25;;;3.05;;
39066;SDS011;24821;51.988;6.020;2022-08-25T11:36:26;3.28;;;3.08;;
39066;SDS011;24821;51.988;6.020;2022-08-25T11:42:07;3.13;;;2.60;;
39066;SDS011;24821;51.988;6.020;2022-08-25T11:44:43;2.72;;;2.53;;
39066;SDS011;24821;51.988;6.020;2022-08-25T11:47:18;2.85;;;2.33;;
39066;SDS011;24821;51.988;6.020;2022-08-25T11:52:50;3.55;;;3.35;;
39066;SDS011;24821;51.988;6.020;2022-08-25T11:58:19;3.40;;;3.20;;
39066;SDS011;24821;51.988;6.020;2022-08-25T12:01:04;4.32;;;2.45;;
39066;SDS011;24821;51.988;6.020;2022-08-25T12:06:21;3.28;;;3.08;;
39066;SDS011;24821;51.988;6.020;2022-08-25T12:08:53;3.28;;;3.08;;
39066;SDS011;24821;51.988;6.020;2022-08-25T12:11:43;2.97;;;2.85;;
39066;SDS011;24821;51.988;6.020;2022-08-25T12:24:43;3.47;;;3.25;;
39066;SDS011;24821;51.988;6.020;2022-08-25T12:35:56;4.40;;;4.00;;
39066;SDS011;24821;51.988;6.020;2022-08-25T12:41:19;4.03;;;3.83;;
39066;SDS011;24821;51.988;6.020;2022-08-25T12:43:47;3.00;;;2.80;;
39066;SDS011;24821;51.988;6.020;2022-08-25T12:54:17;4.68;;;3.83;;
39066;SDS011;24821;51.988;6.020;2022-08-25T12:56:55;4.13;;;3.92;;
39066;SDS011;24821;51.988;6.020;2022-08-25T12:59:31;3.80;;;3.58;;
39066;SDS011;24821;51.988;6.020;2022-08-25T13:10:51;2.78;;;2.58;;
39066;SDS011;24821;51.988;6.020;2022-08-25T13:16:25;3.60;;;2.75;;
39066;SDS011;24821;51.988;6.020;2022-08-25T13:18:53;2.88;;;2.67;;
39066;SDS011;24821;51.988;6.020;2022-08-25T13:21:32;3.00;;;2.80;;
39066;SDS011;24821;51.988;6.020;2022-08-25T13:24:01;2.72;;;2.40;;
39066;SDS011;24821;51.988;6.020;2022-08-25T13:26:31;3.60;;;3.40;;
39066;SDS011;24821;51.988;6.020;2022-08-25T13:31:36;3.40;;;3.20;;
39066;SDS011;24821;51.988;6.020;2022-08-25T13:34:17;3.20;;;3.05;;
39066;SDS011;24821;51.988;6.020;2022-08-25T13:36:45;3.63;;;3.42;;
39066;SDS011;24821;51.988;6.020;2022-08-25T13:39:31;3.88;;;2.90;;
39066;SDS011;24821;51.988;6.020;2022-08-25T13:41:58;2.95;;;2.75;;
39066;SDS011;24821;51.988;6.020;2022-08-25T13:44:27;3.03;;;2.83;;
39066;SDS011;24821;51.988;6.020;2022-08-25T13:47:04;3.03;;;2.83;;
39066;SDS011;24821;51.988;6.020;2022-08-25T13:49:31;3.03;;;2.83;;
39066;SDS011;24821;51.988;6.020;2022-08-25T13:51:56;3.05;;;2.63;;
39066;SDS011;24821;51.988;6.020;2022-08-25T13:54:24;3.55;;;2.90;;
39066;SDS011;24821;51.988;6.020;2022-08-25T14:00:00;2.50;;;2.30;;
39066;SDS011;24821;51.988;6.020;2022-08-25T14:02:48;2.85;;;2.65;;
39066;SDS011;24821;51.988;6.020;2022-08-25T14:05:16;2.47;;;2.38;;
39066;SDS011;24821;51.988;6.020;2022-08-25T14:07:59;2.40;;;2.30;;
39066;SDS011;24821;51.988;6.020;2022-08-25T14:10:39;2.78;;;2.67;;
39066;SDS011;24821;51.988;6.020;2022-08-25T14:13:13;2.95;;;2.80;;
39066;SDS011;24821;51.988;6.020;2022-08-25T14:15:40;3.10;;;2.90;;
39066;SDS011;24821;51.988;6.020;2022-08-25T14:18:17;2.90;;;2.70;;
39066;SDS011;24821;51.988;6.020;2022-08-25T14:20:48;2.72;;;2.58;;
39066;SDS011;24821;51.988;6.020;2022-08-25T14:23:17;2.65;;;2.55;;
39066;SDS011;24821;51.988;6.020;2022-08-25T14:25:47;2.40;;;2.22;;
39066;SDS011;24821;51.988;6.020;2022-08-25T14:28:15;2.50;;;2.40;;
39066;SDS011;24821;51.988;6.020;2022-08-25T14:30:52;2.42;;;2.33;;
39066;SDS011;24821;51.988;6.020;2022-08-25T14:33:22;2.60;;;2.50;;
39066;SDS011;24821;51.988;6.020;2022-08-25T14:35:51;2.00;;;1.90;;
39066;SDS011;24821;51.988;6.020;2022-08-25T14:38:18;2.90;;;2.10;;
39066;SDS011;24821;51.988;6.020;2022-08-25T14:40:45;5.32;;;2.47;;
39066;SDS011;24821;51.988;6.020;2022-08-25T14:43:12;2.38;;;2.13;;
39066;SDS011;24821;51.988;6.020;2022-08-25T14:45:39;2.22;;;2.13;;
39066;SDS011;24821;51.988;6.020;2022-08-25T14:48:08;2.75;;;2.60;;
39066;SDS011;24821;51.988;6.020;2022-08-25T14:50:38;2.83;;;2.63;;
39066;SDS011;24821;51.988;6.020;2022-08-25T14:53:04;1.92;;;1.83;;
39066;SDS011;24821;51.988;6.020;2022-08-25T14:55:29;2.45;;;2.33;;
39066;SDS011;24821;51.988;6.020;2022-08-25T14:57:55;2.58;;;2.20;;
39066;SDS011;24821;51.988;6.020;2022-08-25T15:00:21;2.42;;;2.20;;
39066;SDS011;24821;51.988;6.020;2022-08-25T15:02:47;2.67;;;2.47;;
39066;SDS011;24821;51.988;6.020;2022-08-25T15:05:14;2.33;;;2.20;;
39066;SDS011;24821;51.988;6.020;2022-08-25T15:07:44;1.90;;;1.80;;
39066;SDS011;24821;51.988;6.020;2022-08-25T15:10:28;2.22;;;2.13;;
39066;SDS011;24821;51.988;6.020;2022-08-25T15:12:54;2.63;;;2.50;;
39066;SDS011;24821;51.988;6.020;2022-08-25T15:19:10;2.45;;;2.35;;
39066;SDS011;24821;51.988;6.020;2022-08-25T15:21:38;2.15;;;2.05;;
39066;SDS011;24821;51.988;6.020;2022-08-25T15:24:05;2.30;;;2.20;;
39066;SDS011;24821;51.988;6.020;2022-08-25T15:26:34;2.20;;;2.10;;
39066;SDS011;24821;51.988;6.020;2022-08-25T15:29:07;2.88;;;2.53;;
39066;SDS011;24821;51.988;6.020;2022-08-25T15:31:33;2.40;;;2.22;;
39066;SDS011;24821;51.988;6.020;2022-08-25T15:33:58;2.53;;;2.13;;
39066;SDS011;24821;51.988;6.020;2022-08-25T15:36:24;2.15;;;2.00;;
39066;SDS011;24821;51.988;6.020;2022-08-25T15:38:50;2.30;;;2.20;;
39066;SDS011;24821;51.988;6.020;2022-08-25T15:41:17;2.50;;;2.30;;
39066;SDS011;24821;51.988;6.020;2022-08-25T15:43:43;2.55;;;2.40;;
39066;SDS011;24821;51.988;6.020;2022-08-25T15:46:09;2.80;;;2.60;;
39066;SDS011;24821;51.988;6.020;2022-08-25T15:48:39;2.50;;;2.40;;
39066;SDS011;24821;51.988;6.020;2022-08-25T15:51:05;2.20;;;2.10;;
39066;SDS011;24821;51.988;6.020;2022-08-25T15:53:32;2.38;;;2.28;;
39066;SDS011;24821;51.988;6.020;2022-08-25T15:55:58;2.25;;;2.05;;
39066;SDS011;24821;51.988;6.020;2022-08-25T15:58:24;2.10;;;2.00;;
39066;SDS011;24821;51.988;6.020;2022-08-25T16:00:50;2.60;;;2.40;;
39066;SDS011;24821;51.988;6.020;2022-08-25T16:03:15;2.45;;;2.25;;
39066;SDS011;24821;51.988;6.020;2022-08-25T16:05:41;2.40;;;2.30;;
39066;SDS011;24821;51.988;6.020;2022-08-25T16:08:08;2.40;;;2.30;;
39066;SDS011;24821;51.988;6.020;2022-08-25T16:10:34;2.85;;;2.75;;
39066;SDS011;24821;51.988;6.020;2022-08-25T16:13:02;2.25;;;2.15;;
39066;SDS011;24821;51.988;6.020;2022-08-25T16:15:28;2.05;;;1.95;;
39066;SDS011;24821;51.988;6.020;2022-08-25T16:17:54;4.18;;;2.90;;
39066;SDS011;24821;51.988;6.020;2022-08-25T16:20:21;3.22;;;2.85;;
39066;SDS011;24821;51.988;6.020;2022-08-25T16:22:48;2.47;;;2.38;;
39066;SDS011;24821;51.988;6.020;2022-08-25T16:25:14;2.50;;;2.30;;
39066;SDS011;24821;51.988;6.020;2022-08-25T16:27:40;2.42;;;2.30;;
39066;SDS011;24821;51.988;6.020;2022-08-25T16:30:06;2.65;;;2.45;;
39066;SDS011;24821;51.988;6.020;2022-08-25T16:32:34;2.70;;;2.60;;
39066;SDS011;24821;51.988;6.020;2022-08-25T16:34:59;2.53;;;2.42;;
39066;SDS011;24821;51.988;6.020;2022-08-25T16:37:25;3.13;;;2.60;;
39066;SDS011;24821;51.988;6.020;2022-08-25T16:39:51;3.05;;;2.92;;
39066;SDS011;24821;51.988;6.020;2022-08-25T16:42:17;2.85;;;2.65;;